Time;durP1;ratioP1;P1;durP2;ratioP2;P2;SDS_P1;SDS_P2;PMS_P1;PMS_P2;Temp;Humidity;BMP_temperature;BMP_pressure;BME280_temperature;BME280_humidity;BME280_pressure;Samples;Min_cycle;Max_cycle;Signal;HPM_P1;HPM_P2
2021/07/25 00:01:05;;;;;;;26.37;23.20;;;18.40;99.90;;;;;;4975433;28;20177;-70
2021/07/25 00:03:30;;;;;;;26.77;23.50;;;18.40;99.90;;;;;;4975916;28;20201;-71
2021/07/25 00:05:56;;;;;;;26.17;22.47;;;18.40;99.90;;;;;;4975443;28;20593;-71
2021/07/25 00:08:21;;;;;;;25.30;22.40;;;18.40;99.90;;;;;;4975276;28;20483;-72
2021/07/25 00:10:48;;;;;;;27.60;22.77;;;18.30;99.90;;;;;;4975393;28;20183;-72
2021/07/25 00:13:16;;;;;;;28.13;23.93;;;18.20;99.90;;;;;;4975068;28;20189;-72
2021/07/25 00:15:42;;;;;;;28.67;23.70;;;18.30;99.90;;;;;;4974665;28;20459;-72
2021/07/25 00:18:08;;;;;;;26.33;22.50;;;18.30;99.90;;;;;;4974879;28;20562;-72
2021/07/25 00:20:33;;;;;;;27.90;22.50;;;18.30;99.90;;;;;;4975031;28;20417;-72
2021/07/25 00:23:00;;;;;;;27.13;22.10;;;18.30;99.90;;;;;;4974946;28;20535;-72
2021/07/25 00:25:25;;;;;;;23.17;19.60;;;18.30;99.90;;;;;;4974670;28;20173;-72
2021/07/25 00:27:55;;;;;;;26.33;21.40;;;18.30;99.90;;;;;;4975109;28;21030;-71
2021/07/25 00:30:23;;;;;;;24.70;20.70;;;18.30;99.90;;;;;;4974540;28;20172;-71
2021/07/25 00:32:49;;;;;;;22.43;20.07;;;18.30;99.90;;;;;;4973581;28;20539;-71
2021/07/25 00:35:18;;;;;;;23.80;20.73;;;18.40;99.90;;;;;;4974126;28;20436;-71
2021/07/25 00:37:47;;;;;;;21.93;18.90;;;18.40;99.90;;;;;;4974866;28;20483;-72
2021/07/25 00:40:38;;;;;;;25.52;22.73;;;18.50;99.90;;;;;;4974452;28;20812;-72
2021/07/25 00:43:03;;;;;;;24.80;21.07;;;18.50;99.90;;;;;;4956794;28;20188;-71
2021/07/25 00:45:29;;;;;;;21.80;19.50;;;18.60;99.90;;;;;;4976708;28;20412;-71
2021/07/25 00:47:55;;;;;;;26.33;21.23;;;18.70;99.90;;;;;;4990347;28;20173;-71
2021/07/25 00:50:21;;;;;;;25.70;23.10;;;18.70;99.90;;;;;;4988672;28;20427;-71
2021/07/25 00:52:46;;;;;;;22.10;19.70;;;18.90;99.90;;;;;;4977379;28;20597;-71
2021/07/25 00:55:13;;;;;;;23.20;20.80;;;18.90;99.90;;;;;;4974576;28;20188;-71
2021/07/25 00:57:40;;;;;;;21.73;19.43;;;18.90;99.90;;;;;;4974824;28;20299;-71
2021/07/25 01:00:07;;;;;;;22.80;20.30;;;18.90;99.90;;;;;;4975633;28;20953;-72
2021/07/25 01:02:50;;;;;;;25.63;21.33;;;19.00;99.90;;;;;;4974915;28;20441;-72
2021/07/25 01:05:26;;;;;;;26.03;21.13;;;19.00;99.90;;;;;;4978640;28;20447;-71
2021/07/25 01:08:07;;;;;;;22.03;19.63;;;18.90;99.90;;;;;;4978379;28;20498;-71
2021/07/25 01:10:33;;;;;;;25.60;21.13;;;18.90;99.90;;;;;;4978464;28;20894;-71
2021/07/25 01:13:07;;;;;;;23.27;20.77;;;18.90;99.90;;;;;;4978338;28;20435;-71
2021/07/25 01:15:33;;;;;;;24.77;20.30;;;18.90;99.90;;;;;;4978204;28;20454;-71
2021/07/25 01:18:00;;;;;;;22.30;19.43;;;18.90;99.90;;;;;;4978062;28;20448;-70
2021/07/25 01:20:26;;;;;;;24.57;19.23;;;18.80;99.90;;;;;;4978149;28;20924;-70
2021/07/25 01:22:54;;;;;;;23.90;21.00;;;18.90;99.90;;;;;;4978694;28;20420;-69
2021/07/25 01:25:23;;;;;;;23.13;20.00;;;18.90;99.90;;;;;;4978506;28;20401;-71
2021/07/25 01:28:26;;;;;;;21.60;19.30;;;18.90;99.90;;;;;;4978009;28;20404;-70
2021/07/25 01:30:57;;;;;;;21.73;19.10;;;19.10;99.90;;;;;;4918175;29;20442;-71
2021/07/25 01:33:31;;;;;;;22.63;20.23;;;19.10;99.90;;;;;;4918363;29;20446;-71
2021/07/25 01:35:58;;;;;;;23.07;20.20;;;19.20;99.90;;;;;;4919976;29;20566;-70
2021/07/25 01:38:27;;;;;;;20.43;18.17;;;19.20;99.90;;;;;;4921851;29;20434;-71
2021/07/25 01:41:02;;;;;;;23.10;19.97;;;19.30;99.90;;;;;;4921208;29;20419;-71
2021/07/25 01:43:28;;;;;;;21.97;19.60;;;19.30;99.90;;;;;;4919669;29;20967;-71
2021/07/25 01:45:54;;;;;;;25.60;20.13;;;19.30;99.90;;;;;;4919962;29;20422;-71
2021/07/25 01:48:19;;;;;;;23.70;21.20;;;19.30;99.90;;;;;;4920326;29;20541;-71
2021/07/25 01:50:45;;;;;;;25.73;20.67;;;19.30;99.90;;;;;;4920352;29;20258;-71
2021/07/25 01:53:10;;;;;;;25.03;19.80;;;19.30;99.90;;;;;;4921097;29;20218;-71
2021/07/25 01:55:36;;;;;;;22.50;19.70;;;19.30;99.90;;;;;;4920874;29;20183;-71
2021/07/25 01:58:01;;;;;;;24.77;20.67;;;19.40;99.90;;;;;;4920798;29;20233;-71
2021/07/25 02:00:27;;;;;;;24.30;21.10;;;19.40;99.90;;;;;;4919686;29;20640;-71
2021/07/25 02:02:52;;;;;;;22.00;19.60;;;19.40;99.90;;;;;;4920809;29;20677;-70
2021/07/25 02:05:18;;;;;;;25.13;20.57;;;19.30;99.90;;;;;;4922454;28;20291;-71
2021/07/25 02:07:44;;;;;;;20.70;18.50;;;19.40;99.90;;;;;;4977852;28;20177;-71
2021/07/25 02:10:10;;;;;;;24.17;21.57;;;19.40;99.90;;;;;;4977749;28;20231;-71
2021/07/25 02:12:35;;;;;;;24.53;21.00;;;19.40;99.90;;;;;;4977114;28;20204;-71
2021/07/25 02:15:01;;;;;;;25.30;21.70;;;19.50;99.90;;;;;;4975237;28;20438;-71
2021/07/25 02:17:26;;;;;;;24.10;20.17;;;19.50;99.90;;;;;;4976724;28;20208;-71
2021/07/25 02:19:52;;;;;;;22.93;20.47;;;19.40;99.90;;;;;;4977075;28;20177;-71
2021/07/25 02:22:17;;;;;;;22.03;19.57;;;19.40;99.90;;;;;;4977293;28;20196;-71
2021/07/25 02:24:43;;;;;;;23.63;21.23;;;19.40;99.90;;;;;;4976128;28;20410;-71
2021/07/25 02:27:08;;;;;;;23.20;20.70;;;19.40;99.90;;;;;;4976491;28;20591;-71
2021/07/25 02:29:34;;;;;;;24.00;21.27;;;19.30;99.90;;;;;;4976953;28;20173;-71
2021/07/25 02:31:59;;;;;;;21.83;19.37;;;19.30;99.90;;;;;;4976300;28;20251;-71
2021/07/25 02:34:25;;;;;;;28.40;20.47;;;19.30;99.90;;;;;;4976683;28;20181;-71
2021/07/25 02:36:51;;;;;;;27.87;21.20;;;19.20;99.90;;;;;;4976413;28;20201;-71
2021/07/25 02:39:16;;;;;;;23.10;19.80;;;19.20;99.90;;;;;;4976464;28;20272;-71
2021/07/25 02:41:42;;;;;;;23.70;20.53;;;19.10;99.90;;;;;;4976562;28;20534;-71
2021/07/25 02:44:08;;;;;;;25.50;20.13;;;19.00;99.90;;;;;;4976409;28;20247;-71
2021/07/25 02:46:34;;;;;;;25.10;20.60;;;19.00;99.90;;;;;;4976371;28;20634;-71
2021/07/25 02:49:00;;;;;;;28.67;21.73;;;18.90;99.90;;;;;;4976668;28;20507;-71
2021/07/25 02:51:26;;;;;;;24.60;20.10;;;18.90;99.90;;;;;;4976390;28;20420;-71
2021/07/25 02:53:51;;;;;;;26.07;21.40;;;18.80;99.90;;;;;;4976159;28;20431;-71
2021/07/25 02:56:17;;;;;;;24.53;20.40;;;18.70;99.90;;;;;;4976146;28;20284;-71
2021/07/25 02:58:42;;;;;;;23.30;19.83;;;18.60;99.90;;;;;;4976083;28;20274;-71
2021/07/25 03:01:12;;;;;;;23.63;20.27;;;18.60;99.90;;;;;;4976752;28;20173;-71
2021/07/25 03:03:38;;;;;;;23.17;20.67;;;18.50;99.90;;;;;;4975741;28;20669;-72
2021/07/25 03:06:03;;;;;;;22.20;19.17;;;18.40;99.90;;;;;;4975750;28;20427;-71
2021/07/25 03:08:29;;;;;;;23.77;19.70;;;18.40;99.90;;;;;;4975925;28;20180;-71
2021/07/25 03:10:54;;;;;;;22.00;19.43;;;18.30;99.90;;;;;;4975260;28;20199;-70
2021/07/25 03:13:20;;;;;;;24.95;21.33;;;18.30;99.90;;;;;;4975420;28;20900;-70
2021/07/25 03:15:45;;;;;;;22.00;19.53;;;18.20;99.90;;;;;;4975940;28;20169;-70
2021/07/25 03:18:11;;;;;;;24.97;19.47;;;18.20;99.90;;;;;;4975392;28;20200;-71
2021/07/25 03:20:36;;;;;;;27.07;19.57;;;18.20;99.90;;;;;;4975731;28;20177;-71
2021/07/25 03:23:02;;;;;;;21.33;19.10;;;18.20;99.90;;;;;;4975129;28;20231;-71
2021/07/25 03:25:28;;;;;;;22.57;20.13;;;18.10;99.90;;;;;;4975408;28;20177;-71
2021/07/25 03:27:53;;;;;;;23.87;20.33;;;18.00;99.90;;;;;;4975242;28;20188;-71
2021/07/25 03:30:19;;;;;;;25.60;21.37;;;18.00;99.90;;;;;;4975703;28;20256;-71
2021/07/25 03:32:44;;;;;;;29.53;21.67;;;18.00;99.90;;;;;;4975531;28;20197;-71
2021/07/25 03:35:10;;;;;;;26.37;21.20;;;17.90;99.90;;;;;;4974643;28;20188;-69
2021/07/25 03:37:40;;;;;;;25.20;19.20;;;17.90;99.90;;;;;;4975427;28;20609;-72
2021/07/25 03:40:06;;;;;;;23.07;20.13;;;17.80;99.90;;;;;;4975895;28;20169;-71
2021/07/25 03:42:32;;;;;;;23.80;21.20;;;17.80;99.90;;;;;;4975258;28;20483;-71
2021/07/25 03:44:57;;;;;;;27.07;20.67;;;17.80;99.90;;;;;;4975304;28;20412;-71
2021/07/25 03:47:23;;;;;;;25.30;19.83;;;17.80;99.90;;;;;;4975134;28;20192;-72
2021/07/25 03:49:48;;;;;;;24.30;20.63;;;17.80;99.90;;;;;;4975278;28;20204;-71
2021/07/25 03:52:14;;;;;;;25.40;20.77;;;17.80;99.90;;;;;;4975256;28;20196;-72
2021/07/25 03:54:42;;;;;;;26.20;19.80;;;17.80;99.90;;;;;;4975181;28;20173;-71
2021/07/25 03:57:08;;;;;;;26.00;21.60;;;17.90;99.90;;;;;;4975004;28;20195;-72
2021/07/25 03:59:34;;;;;;;22.90;20.30;;;17.90;99.90;;;;;;4975147;28;20409;-70
2021/07/25 04:01:59;;;;;;;23.57;21.07;;;17.90;99.90;;;;;;4974234;28;20492;-70
2021/07/25 04:04:25;;;;;;;25.73;22.20;;;17.90;99.90;;;;;;4974995;28;20660;-70
2021/07/25 04:06:50;;;;;;;23.90;19.83;;;17.90;99.90;;;;;;4975115;28;20177;-70
2021/07/25 04:09:16;;;;;;;21.70;18.47;;;17.90;99.90;;;;;;4974858;28;20599;-70
2021/07/25 04:11:41;;;;;;;21.40;18.53;;;17.90;99.90;;;;;;4974838;28;20197;-70
2021/07/25 04:14:07;;;;;;;22.90;17.90;;;17.90;99.90;;;;;;4974909;28;20562;-71
2021/07/25 04:16:32;;;;;;;20.43;17.20;;;17.80;99.90;;;;;;4975082;28;20206;-71
2021/07/25 04:18:58;;;;;;;17.90;16.00;;;17.80;99.90;;;;;;4974804;28;20177;-70
2021/07/25 04:21:23;;;;;;;19.23;14.83;;;17.90;99.90;;;;;;4957460;28;20179;-71
2021/07/25 04:23:52;;;;;;;16.90;14.10;;;17.90;99.90;;;;;;4974731;28;20215;-71
2021/07/25 04:26:18;;;;;;;17.90;14.50;;;17.90;99.90;;;;;;4975506;28;20542;-70
2021/07/25 04:28:44;;;;;;;15.50;13.90;;;18.00;99.90;;;;;;4976242;28;20471;-71
2021/07/25 04:31:09;;;;;;;16.10;13.90;;;18.00;99.90;;;;;;4976002;28;20408;-70
2021/07/25 04:33:37;;;;;;;16.80;14.83;;;18.10;99.90;;;;;;4975266;28;20185;-71
2021/07/25 04:36:11;;;;;;;18.83;16.77;;;18.00;99.90;;;;;;4975453;28;20169;-70
2021/07/25 04:38:37;;;;;;;19.50;16.17;;;18.00;99.90;;;;;;4976985;28;20431;-71
2021/07/25 04:41:08;;;;;;;17.73;15.90;;;18.00;99.90;;;;;;4980388;28;20408;-70
2021/07/25 04:43:35;;;;;;;16.53;14.80;;;17.90;99.90;;;;;;4979231;28;20432;-71
2021/07/25 04:46:41;;;;;;;15.97;14.20;;;17.90;99.90;;;;;;4978636;28;20408;-70
2021/07/25 04:49:09;;;;;;;18.17;16.27;;;18.00;99.90;;;;;;4956229;28;20436;-70
2021/07/25 04:51:39;;;;;;;16.23;14.53;;;18.00;99.90;;;;;;4978680;28;20169;-70
2021/07/25 04:54:07;;;;;;;16.30;14.57;;;18.00;99.90;;;;;;4978481;28;20438;-71
2021/07/25 04:57:01;;;;;;;14.50;12.30;;;18.00;99.90;;;;;;4978034;28;20451;-71
2021/07/25 04:59:31;;;;;;;16.13;13.50;;;18.00;99.90;;;;;;4978451;28;20504;-71
2021/07/25 05:02:08;;;;;;;16.73;14.40;;;17.90;99.90;;;;;;4978265;28;20404;-70
2021/07/25 05:04:34;;;;;;;15.13;13.03;;;17.90;99.90;;;;;;4977879;28;20435;-71
2021/07/25 05:06:59;;;;;;;14.97;13.37;;;18.00;99.90;;;;;;4978055;28;20436;-71
2021/07/25 05:09:26;;;;;;;15.47;13.80;;;18.00;99.90;;;;;;4977976;28;20231;-70
2021/07/25 05:12:01;;;;;;;13.57;12.07;;;18.00;99.90;;;;;;4978347;28;20657;-71
2021/07/25 05:14:36;;;;;;;14.43;12.20;;;18.00;99.90;;;;;;4978119;28;20412;-71
2021/07/25 05:17:40;;;;;;;11.83;10.67;;;18.10;99.90;;;;;;4978212;28;20953;-71
2021/07/25 05:20:14;;;;;;;12.30;10.87;;;18.10;99.90;;;;;;4977097;28;20420;-71
2021/07/25 05:23:06;;;;;;;15.57;10.77;;;18.20;99.90;;;;;;4977820;28;20427;-71
2021/07/25 05:25:32;;;;;;;11.63;10.47;;;18.30;99.90;;;;;;4978146;28;20475;-71
2021/07/25 05:28:04;;;;;;;12.77;10.40;;;18.30;99.90;;;;;;4978096;28;20412;-71
2021/07/25 05:30:30;;;;;;;10.30;8.93;;;18.40;99.90;;;;;;4977777;28;20397;-71
2021/07/25 05:32:56;;;;;;;11.57;9.80;;;18.50;99.90;;;;;;4977577;28;20432;-71
2021/07/25 05:35:22;;;;;;;11.15;10.05;;;18.50;99.90;;;;;;4976712;28;20521;-70
2021/07/25 05:37:47;;;;;;;8.90;8.00;;;18.60;99.90;;;;;;4960166;28;20693;-70
2021/07/25 05:40:14;;;;;;;8.63;7.70;;;18.60;99.90;;;;;;4977398;28;20196;-71
2021/07/25 05:42:41;;;;;;;8.63;7.83;;;18.70;99.90;;;;;;4977622;28;20196;-71
2021/07/25 05:45:08;;;;;;;9.50;8.53;;;18.70;99.90;;;;;;4977186;28;20412;-70
2021/07/25 05:47:37;;;;;;;9.00;8.10;;;18.80;99.90;;;;;;4977238;28;20416;-70
2021/07/25 05:50:04;;;;;;;8.73;7.83;;;18.90;99.90;;;;;;4976814;28;20416;-70
2021/07/25 05:52:50;;;;;;;8.07;7.33;;;18.90;99.90;;;;;;4976951;28;20424;-70
2021/07/25 05:55:23;;;;;;;8.00;7.20;;;18.90;99.90;;;;;;4977064;28;20419;-71
2021/07/25 05:57:49;;;;;;;7.73;7.03;;;19.00;99.90;;;;;;4977292;28;20824;-70
2021/07/25 06:00:15;;;;;;;7.13;6.40;;;19.00;99.90;;;;;;4977133;28;20400;-71
2021/07/25 06:03:00;;;;;;;8.60;7.70;;;19.10;99.90;;;;;;4976870;28;20821;-70
2021/07/25 06:05:28;;;;;;;8.83;7.57;;;19.10;99.90;;;;;;4976730;28;20986;-71
2021/07/25 06:07:54;;;;;;;8.10;7.00;;;19.20;99.90;;;;;;4977241;28;20929;-70
2021/07/25 06:10:22;;;;;;;9.90;7.83;;;19.20;99.90;;;;;;4976878;28;20811;-70
2021/07/25 06:12:48;;;;;;;7.23;6.53;;;19.20;99.90;;;;;;4977067;28;20429;-70
2021/07/25 06:15:14;;;;;;;7.87;7.07;;;19.20;99.90;;;;;;4976847;28;20411;-71
2021/07/25 06:17:39;;;;;;;9.00;7.60;;;19.30;99.90;;;;;;4976780;28;20559;-70
2021/07/25 06:20:06;;;;;;;7.00;6.20;;;19.30;99.90;;;;;;4976998;28;20431;-71
2021/07/25 06:22:43;;;;;;;7.70;6.67;;;19.40;99.90;;;;;;4977243;28;20213;-71
2021/07/25 06:25:11;;;;;;;6.70;6.10;;;19.40;99.90;;;;;;4977271;28;20443;-71
2021/07/25 06:27:37;;;;;;;7.20;6.50;;;19.50;99.90;;;;;;4979659;28;20412;-70
2021/07/25 06:30:05;;;;;;;7.63;6.67;;;19.50;99.90;;;;;;4988892;28;20405;-71
2021/07/25 06:32:31;;;;;;;7.57;6.83;;;19.60;99.90;;;;;;4978562;28;20801;-71
2021/07/25 06:34:56;;;;;;;6.83;6.07;;;19.60;99.90;;;;;;4976808;28;20531;-71
2021/07/25 06:37:22;;;;;;;7.77;6.30;;;19.70;99.90;;;;;;4976382;28;20681;-71
2021/07/25 06:39:47;;;;;;;8.43;6.80;;;19.80;99.90;;;;;;4976446;28;20180;-71
2021/07/25 06:42:13;;;;;;;7.40;6.40;;;19.80;99.90;;;;;;4976615;28;20736;-71
2021/07/25 06:44:38;;;;;;;8.00;6.77;;;19.90;99.90;;;;;;4976242;28;20665;-71
2021/07/25 06:47:04;;;;;;;6.37;5.70;;;19.90;99.90;;;;;;4975844;28;20204;-71
2021/07/25 06:49:29;;;;;;;6.53;5.93;;;19.90;99.90;;;;;;4976621;28;20538;-71
2021/07/25 06:51:55;;;;;;;6.80;6.20;;;20.00;99.90;;;;;;4976488;28;20180;-72
2021/07/25 06:54:20;;;;;;;6.67;6.07;;;20.10;99.90;;;;;;4982489;28;20172;-70
2021/07/25 06:56:46;;;;;;;6.27;5.67;;;20.10;99.90;;;;;;4979282;28;20201;-71
2021/07/25 06:59:11;;;;;;;9.50;6.37;;;20.20;99.90;;;;;;4976083;28;20201;-70
2021/07/25 07:01:37;;;;;;;6.80;6.17;;;20.30;99.90;;;;;;4975851;28;20174;-71
2021/07/25 07:04:02;;;;;;;7.67;6.93;;;20.30;99.90;;;;;;4975887;28;20592;-70
2021/07/25 07:06:28;;;;;;;7.77;5.80;;;20.40;99.90;;;;;;4975651;28;20180;-70
2021/07/25 07:08:53;;;;;;;6.57;5.80;;;20.40;99.90;;;;;;4976245;28;20272;-70
2021/07/25 07:11:26;;;;;;;6.40;5.80;;;20.50;99.90;;;;;;4958403;28;20184;-70
2021/07/25 07:13:53;;;;;;;6.18;5.57;;;20.60;99.90;;;;;;4975306;28;20410;-70
2021/07/25 07:16:18;;;;;;;6.57;5.63;;;20.70;99.90;;;;;;4975678;28;20179;-70
2021/07/25 07:18:44;;;;;;;5.83;5.33;;;20.70;99.90;;;;;;4975592;28;20945;-70
2021/07/25 07:21:09;;;;;;;5.90;5.37;;;20.80;99.90;;;;;;4975597;28;20536;-70
2021/07/25 07:23:35;;;;;;;6.60;5.20;;;20.80;99.90;;;;;;4976410;28;20196;-70
2021/07/25 07:26:00;;;;;;;6.90;4.83;;;20.90;99.90;;;;;;4976473;28;20180;-72
2021/07/25 07:28:26;;;;;;;5.63;5.13;;;21.00;99.90;;;;;;4976507;28;20218;-71
2021/07/25 07:30:51;;;;;;;6.83;5.33;;;21.10;99.90;;;;;;4976795;28;20176;-70
2021/07/25 07:33:19;;;;;;;5.63;5.13;;;21.10;99.90;;;;;;4975032;28;20228;-71
2021/07/25 07:35:45;;;;;;;8.43;5.90;;;21.20;99.90;;;;;;4975055;28;20200;-70
2021/07/25 07:38:12;;;;;;;6.97;5.30;;;21.20;99.90;;;;;;4975200;28;20554;-71
2021/07/25 07:40:39;;;;;;;5.60;5.10;;;21.30;99.90;;;;;;4975111;28;20408;-72
2021/07/25 07:43:06;;;;;;;7.47;5.20;;;21.50;99.90;;;;;;4975015;28;20523;-71
2021/07/25 07:45:33;;;;;;;5.97;4.90;;;21.60;99.90;;;;;;4975010;28;20447;-72
2021/07/25 07:47:58;;;;;;;5.93;5.17;;;21.70;99.90;;;;;;4975080;28;20417;-70
2021/07/25 07:50:24;;;;;;;7.47;5.40;;;21.80;99.90;;;;;;4974732;28;20475;-70
2021/07/25 07:52:50;;;;;;;5.17;4.20;;;21.90;99.90;;;;;;4974945;28;20200;-69
2021/07/25 07:55:16;;;;;;;5.97;4.50;;;22.00;99.90;;;;;;4974541;28;20643;-71
2021/07/25 07:57:43;;;;;;;5.77;4.10;;;22.00;99.90;;;;;;4987761;28;20215;-70
2021/07/25 08:00:10;;;;;;;4.60;4.17;;;22.00;99.90;;;;;;4995972;28;20396;-71
2021/07/25 08:02:36;;;;;;;6.45;5.35;;;22.10;99.90;;;;;;4976655;28;20450;-71
2021/07/25 08:05:02;;;;;;;5.37;4.83;;;22.10;99.90;;;;;;4974877;28;20216;-70
2021/07/25 08:07:28;;;;;;;5.10;4.60;;;22.20;99.90;;;;;;4975576;28;20169;-71
2021/07/25 08:09:54;;;;;;;5.10;4.70;;;22.30;99.90;;;;;;4976191;28;20407;-71
2021/07/25 08:12:19;;;;;;;5.23;4.73;;;22.40;99.90;;;;;;4975015;28;21347;-70
2021/07/25 08:14:45;;;;;;;4.67;3.97;;;22.50;99.90;;;;;;4976526;28;20208;-72
2021/07/25 08:17:10;;;;;;;5.03;4.07;;;22.50;99.90;;;;;;4974693;28;20240;-71
2021/07/25 08:19:36;;;;;;;4.50;4.10;;;22.60;99.90;;;;;;4974711;28;20273;-71
2021/07/25 08:22:03;;;;;;;4.73;4.33;;;22.60;99.90;;;;;;4974212;28;20173;-70
2021/07/25 08:24:29;;;;;;;4.90;4.50;;;22.70;99.90;;;;;;4974999;28;20631;-71
2021/07/25 08:26:54;;;;;;;4.83;4.43;;;22.80;99.90;;;;;;4975062;28;20466;-71
2021/07/25 08:29:20;;;;;;;5.00;4.50;;;22.70;99.90;;;;;;4975877;28;20220;-71
2021/07/25 08:31:45;;;;;;;4.50;4.10;;;22.80;99.90;;;;;;4974897;28;20196;-71
2021/07/25 08:34:11;;;;;;;4.63;4.10;;;22.90;99.90;;;;;;4973850;28;20354;-71
2021/07/25 08:36:37;;;;;;;5.33;4.83;;;23.00;99.90;;;;;;4973633;28;20616;-70
2021/07/25 08:39:03;;;;;;;5.53;4.27;;;23.00;99.90;;;;;;4974397;28;20690;-71
2021/07/25 08:42:04;;;;;;;4.50;4.10;;;23.10;99.90;;;;;;4974351;28;20177;-71
2021/07/25 08:44:43;;;;;;;5.40;4.50;;;23.10;99.90;;;;;;4972663;28;20407;-70
2021/07/25 08:47:32;;;;;;;5.53;4.33;;;23.00;99.90;;;;;;4974120;28;20474;-70
2021/07/25 08:50:03;;;;;;;4.47;3.85;;;23.00;99.90;;;;;;4969878;28;20430;-71
2021/07/25 08:52:37;;;;;;;4.37;3.97;;;23.20;99.90;;;;;;4974210;28;20200;-70
2021/07/25 08:55:12;;;;;;;5.33;4.57;;;23.20;99.90;;;;;;4975153;28;20428;-71
2021/07/25 08:57:40;;;;;;;6.80;4.33;;;23.20;99.90;;;;;;4975394;28;20480;-71
2021/07/25 09:00:08;;;;;;;4.60;4.23;;;23.20;99.90;;;;;;4974199;28;20448;-71
2021/07/25 09:02:34;;;;;;;4.83;4.33;;;23.30;99.90;;;;;;4974751;28;20444;-72
2021/07/25 09:05:00;;;;;;;4.77;4.30;;;23.30;99.90;;;;;;4975008;28;20448;-72
2021/07/25 09:07:30;;;;;;;13.17;7.53;;;23.40;99.90;;;;;;4975246;28;20878;-71
2021/07/25 09:10:00;;;;;;;9.10;5.67;;;23.40;99.90;;;;;;4973047;28;20428;-72
2021/07/25 09:12:27;;;;;;;5.60;4.00;;;23.50;99.90;;;;;;4975632;28;20428;-70
2021/07/25 09:14:56;;;;;;;9.97;4.80;;;23.50;99.90;;;;;;4973836;28;20418;-71
2021/07/25 09:17:23;;;;;;;4.77;4.37;;;23.60;99.90;;;;;;4973344;28;20464;-71
2021/07/25 09:20:27;;;;;;;5.20;4.70;;;23.60;99.90;;;;;;4973497;28;20903;-70
2021/07/25 09:22:57;;;;;;;5.47;4.83;;;23.70;99.90;;;;;;4894742;29;20223;-71
2021/07/25 09:25:22;;;;;;;4.87;4.27;;;23.70;99.90;;;;;;4962471;28;21228;-70
2021/07/25 09:27:48;;;;;;;4.90;4.43;;;23.70;99.90;;;;;;4976954;28;20432;-70
2021/07/25 09:30:38;;;;;;;4.88;4.38;;;23.90;99.90;;;;;;4977357;28;20426;-72
2021/07/25 09:33:29;;;;;;;5.10;4.10;;;24.10;99.90;;;;;;4962078;28;20284;-71
2021/07/25 09:36:12;;;;;;;6.23;4.67;;;24.20;99.90;;;;;;4966101;28;20420;-72
2021/07/25 09:38:39;;;;;;;4.50;4.10;;;24.40;99.90;;;;;;4959611;28;20431;-70
2021/07/25 09:41:16;;;;;;;4.20;3.90;;;24.50;99.90;;;;;;4978018;28;20408;-70
2021/07/25 09:43:42;;;;;;;4.40;4.00;;;24.60;99.90;;;;;;4979352;28;20455;-71
2021/07/25 09:46:08;;;;;;;4.13;3.80;;;24.70;99.90;;;;;;4961807;28;20472;-70
2021/07/25 09:48:34;;;;;;;4.10;3.70;;;24.70;99.90;;;;;;4986748;28;20176;-71
2021/07/25 09:51:02;;;;;;;3.83;3.53;;;24.70;99.90;;;;;;4961340;28;20181;-72
2021/07/25 09:53:45;;;;;;;5.07;4.57;;;24.80;99.90;;;;;;4975413;28;20456;-71
2021/07/25 09:56:14;;;;;;;3.90;3.60;;;24.80;99.90;;;;;;4972540;28;20499;-71
2021/07/25 09:58:41;;;;;;;5.00;3.87;;;24.80;99.90;;;;;;4978770;28;20427;-71
2021/07/25 10:01:06;;;;;;;4.50;4.10;;;24.80;99.90;;;;;;4976604;28;20539;-71
2021/07/25 10:03:32;;;;;;;3.90;3.60;;;24.90;99.90;;;;;;4977303;28;20952;-70
2021/07/25 10:05:59;;;;;;;3.93;3.63;;;24.90;99.90;;;;;;4978364;28;20234;-72
2021/07/25 10:08:25;;;;;;;4.30;3.90;;;24.90;99.90;;;;;;4974482;28;20435;-69
2021/07/25 10:10:52;;;;;;;5.57;3.80;;;24.90;99.90;;;;;;4959705;29;20421;-71
2021/07/25 10:13:20;;;;;;;5.40;4.10;;;24.80;99.70;;;;;;4975958;28;20454;-71
2021/07/25 10:16:05;;;;;;;3.93;3.53;;;24.90;99.90;;;;;;4975568;28;20475;-71
2021/07/25 10:18:33;;;;;;;4.43;4.03;;;24.90;99.70;;;;;;4976079;28;20523;-71
2021/07/25 10:21:00;;;;;;;4.13;3.70;;;25.00;99.90;;;;;;4976045;28;20440;-71
2021/07/25 10:23:41;;;;;;;4.90;3.73;;;25.00;99.50;;;;;;4972780;28;20965;-71
2021/07/25 10:26:07;;;;;;;4.70;4.00;;;25.00;99.80;;;;;;4972532;28;20467;-71
2021/07/25 10:28:35;;;;;;;7.60;3.80;;;24.90;99.80;;;;;;4973651;28;20914;-71
2021/07/25 10:31:02;;;;;;;5.20;3.83;;;25.00;99.90;;;;;;4976731;28;20519;-71
2021/07/25 10:33:29;;;;;;;4.20;3.80;;;25.00;99.40;;;;;;4976630;28;20432;-71
2021/07/25 10:35:57;;;;;;;5.53;4.20;;;24.90;99.00;;;;;;4974182;28;20438;-70
2021/07/25 10:38:23;;;;;;;4.60;3.60;;;24.90;99.10;;;;;;4976107;28;20495;-71
2021/07/25 10:40:50;;;;;;;5.77;3.90;;;24.90;99.00;;;;;;4976020;28;20452;-71
2021/07/25 10:43:23;;;;;;;3.70;3.40;;;25.00;98.60;;;;;;4975045;28;20217;-70
2021/07/25 10:46:14;;;;;;;5.47;4.03;;;25.10;98.60;;;;;;4975273;28;20439;-70
2021/07/25 10:48:58;;;;;;;3.43;3.13;;;25.30;98.30;;;;;;4967858;28;20440;-71
2021/07/25 10:51:24;;;;;;;3.73;3.43;;;25.30;97.70;;;;;;4975659;28;20785;-71
2021/07/25 10:53:50;;;;;;;3.57;3.27;;;25.40;97.20;;;;;;4975308;28;20452;-71
2021/07/25 10:56:15;;;;;;;3.63;3.33;;;25.40;96.90;;;;;;4974236;28;20220;-71
2021/07/25 10:58:54;;;;;;;4.20;3.90;;;25.50;96.60;;;;;;4974732;28;20212;-71
2021/07/25 11:01:41;;;;;;;3.53;3.27;;;25.50;96.30;;;;;;4974956;28;20181;-71
2021/07/25 11:04:07;;;;;;;7.83;3.63;;;25.40;96.40;;;;;;4973468;28;20850;-71
2021/07/25 11:06:33;;;;;;;3.67;3.30;;;25.40;96.30;;;;;;4974690;28;20463;-71
2021/07/25 11:08:58;;;;;;;3.70;3.40;;;25.30;96.30;;;;;;4974751;28;20185;-71
2021/07/25 11:11:34;;;;;;;3.83;3.37;;;25.40;96.50;;;;;;4975287;28;20212;-71
2021/07/25 11:14:04;;;;;;;3.53;3.23;;;25.40;96.70;;;;;;4972901;28;20193;-71
2021/07/25 11:16:30;;;;;;;5.23;3.87;;;25.20;96.10;;;;;;4974573;28;20412;-71
2021/07/25 11:18:59;;;;;;;4.60;3.53;;;25.00;96.60;;;;;;4979286;28;20906;-71
2021/07/25 11:21:40;;;;;;;4.77;4.37;;;25.10;96.30;;;;;;4973345;28;20650;-71
2021/07/25 11:24:18;;;;;;;3.80;3.50;;;25.20;96.50;;;;;;4974714;28;20451;-71
2021/07/25 11:26:54;;;;;;;4.00;3.60;;;25.10;95.10;;;;;;4973675;28;20438;-71
2021/07/25 11:29:22;;;;;;;3.20;2.90;;;25.10;95.60;;;;;;4974686;28;20432;-71
2021/07/25 11:31:49;;;;;;;3.70;3.40;;;25.20;95.80;;;;;;4973388;28;20873;-73
2021/07/25 11:34:24;;;;;;;4.10;3.70;;;25.20;96.10;;;;;;4973386;28;20437;-71
2021/07/25 11:36:55;;;;;;;4.40;3.77;;;25.20;96.30;;;;;;4974778;28;20207;-71
2021/07/25 11:39:21;;;;;;;3.47;3.17;;;25.30;96.60;;;;;;4973043;28;20515;-70
2021/07/25 11:41:47;;;;;;;3.30;3.00;;;25.30;96.80;;;;;;4971669;28;20444;-71
2021/07/25 11:44:14;;;;;;;5.97;3.63;;;25.30;96.50;;;;;;4963797;28;20451;-71
2021/07/25 11:46:45;;;;;;;3.67;3.37;;;25.30;96.50;;;;;;4970029;28;20435;-71
2021/07/25 11:49:23;;;;;;;4.73;4.20;;;25.20;96.00;;;;;;4955140;28;20487;-70
2021/07/25 11:52:00;;;;;;;3.67;3.37;;;25.20;96.20;;;;;;4956376;28;20451;-70
2021/07/25 11:54:31;;;;;;;4.33;3.63;;;25.30;95.70;;;;;;4966692;28;20428;-71
2021/07/25 11:57:03;;;;;;;3.80;3.37;;;25.50;95.30;;;;;;4970040;28;20460;-71
2021/07/25 11:59:37;;;;;;;2.63;2.43;;;25.70;94.70;;;;;;4970709;28;20499;-70
2021/07/25 12:02:05;;;;;;;4.90;4.10;;;25.80;93.80;;;;;;4969998;28;20956;-71
2021/07/25 12:04:36;;;;;;;3.90;3.43;;;25.90;93.60;;;;;;4968761;28;20474;-71
2021/07/25 12:07:08;;;;;;;3.87;3.50;;;26.00;93.60;;;;;;4962694;28;20429;-70
2021/07/25 12:09:35;;;;;;;3.47;3.17;;;26.00;92.80;;;;;;4962104;28;20432;-71
2021/07/25 12:12:08;;;;;;;3.50;3.20;;;26.00;92.60;;;;;;4969157;28;20446;-71
2021/07/25 12:14:36;;;;;;;3.60;3.30;;;25.90;92.40;;;;;;4970483;28;20462;-71
2021/07/25 12:17:03;;;;;;;4.67;3.53;;;25.80;92.40;;;;;;4971517;28;20558;-70
2021/07/25 12:19:37;;;;;;;3.53;3.23;;;25.70;93.00;;;;;;4954030;28;20409;-70
2021/07/25 12:22:11;;;;;;;3.57;3.27;;;25.70;93.30;;;;;;4971000;28;20495;-70
2021/07/25 12:24:42;;;;;;;6.73;3.50;;;25.80;93.40;;;;;;4971190;28;20428;-71
2021/07/25 12:27:32;;;;;;;3.40;3.10;;;25.80;93.50;;;;;;4971502;28;20486;-70
2021/07/25 12:30:18;;;;;;;4.70;4.30;;;25.90;94.10;;;;;;4971453;28;20499;-70
2021/07/25 12:32:46;;;;;;;4.57;3.80;;;26.00;95.20;;;;;;4971390;28;20451;-71
2021/07/25 12:35:12;;;;;;;4.13;3.70;;;26.00;95.80;;;;;;4971464;28;20471;-71
2021/07/25 12:37:46;;;;;;;3.97;3.57;;;25.90;96.00;;;;;;4971695;28;20579;-71
2021/07/25 12:40:21;;;;;;;4.10;3.70;;;25.90;96.10;;;;;;4972575;28;20482;-70
2021/07/25 12:43:02;;;;;;;4.10;3.70;;;25.80;96.20;;;;;;4971220;28;20532;-71
2021/07/25 12:45:34;;;;;;;4.23;3.63;;;25.90;95.80;;;;;;4970066;28;20456;-71
2021/07/25 12:48:10;;;;;;;4.13;3.70;;;25.90;95.60;;;;;;4971545;28;20485;-69